createdAt,value
2023-11-16T00:00:57.792Z,1.90
2023-11-16T00:03:44.386Z,1.90
2023-11-16T00:06:30.397Z,1.63
2023-11-16T00:09:17.521Z,1.73
2023-11-16T00:12:03.779Z,1.92
2023-11-16T00:14:49.640Z,1.50
2023-11-16T00:17:38.433Z,1.88
2023-11-16T00:20:24.525Z,1.83
2023-11-16T00:23:10.307Z,1.85
2023-11-16T00:25:59.521Z,1.40
2023-11-16T00:28:44.871Z,1.50
2023-11-16T00:31:33.505Z,1.63
2023-11-16T00:34:19.497Z,1.92
2023-11-16T00:37:06.768Z,1.60
2023-11-16T00:39:54.352Z,1.67
2023-11-16T00:42:41.816Z,1.50
2023-11-16T00:45:28.107Z,1.73
2023-11-16T00:48:14.148Z,1.52
2023-11-16T00:51:00.265Z,1.33
2023-11-16T00:53:45.879Z,1.65
2023-11-16T00:56:31.523Z,1.90
2023-11-16T00:59:22.053Z,1.50
2023-11-16T01:02:09.743Z,1.67
2023-11-16T01:04:55.421Z,2.00
2023-11-16T01:07:40.940Z,2.08
2023-11-16T01:10:30.550Z,2.15
2023-11-16T01:13:23.394Z,2.10
2023-11-16T01:16:13.948Z,1.70
2023-11-16T01:19:01.439Z,1.98
2023-11-16T01:21:55.665Z,2.13
2023-11-16T01:24:42.704Z,1.83
2023-11-16T01:27:30.332Z,2.50
2023-11-16T01:30:16.211Z,2.40
2023-11-16T01:33:05.446Z,2.40
2023-11-16T01:35:53.456Z,2.28
2023-11-16T01:38:39.393Z,2.72
2023-11-16T01:41:24.987Z,2.55
2023-11-16T01:44:10.510Z,2.42
2023-11-16T01:46:58.105Z,2.17
2023-11-16T01:49:45.058Z,2.15
2023-11-16T01:52:30.766Z,2.78
2023-11-16T01:55:17.541Z,2.90
2023-11-16T01:58:04.877Z,3.40
2023-11-16T02:00:51.163Z,4.18
2023-11-16T02:03:37.096Z,3.65
2023-11-16T02:06:24.285Z,3.20
2023-11-16T02:09:11.339Z,2.72
2023-11-16T02:11:57.700Z,2.47
2023-11-16T02:14:43.394Z,2.95
2023-11-16T02:17:31.019Z,2.88
2023-11-16T02:20:21.293Z,2.45
2023-11-16T02:23:08.654Z,2.88
2023-11-16T02:25:57.850Z,3.13
2023-11-16T02:28:43.883Z,3.08
2023-11-16T02:31:38.011Z,2.83
2023-11-16T02:34:24.378Z,2.80
2023-11-16T02:37:10.140Z,2.58
2023-11-16T02:39:57.522Z,2.55
2023-11-16T02:42:43.853Z,2.25
2023-11-16T02:45:30.014Z,2.17
2023-11-16T02:48:16.702Z,2.00
2023-11-16T02:51:02.774Z,2.13
2023-11-16T02:53:48.331Z,2.10
2023-11-16T02:56:36.151Z,1.98
2023-11-16T02:59:22.127Z,2.40
2023-11-16T03:02:07.977Z,2.50
2023-11-16T03:04:55.237Z,3.10
2023-11-16T03:07:42.541Z,3.17
2023-11-16T03:10:29.792Z,3.08
2023-11-16T03:13:17.667Z,3.35
2023-11-16T03:16:06.225Z,3.42
2023-11-16T03:18:52.003Z,3.40
2023-11-16T03:21:37.774Z,3.65
2023-11-16T03:24:26.275Z,3.30
2023-11-16T03:27:12.262Z,3.55
2023-11-16T03:29:59.845Z,3.33
2023-11-16T03:32:48.098Z,3.70
2023-11-16T03:35:33.835Z,3.50
2023-11-16T03:38:19.742Z,3.72
2023-11-16T03:41:05.850Z,3.58
2023-11-16T03:43:51.731Z,3.25
2023-11-16T03:46:39.461Z,3.70
2023-11-16T03:49:25.603Z,3.53
2023-11-16T03:52:11.741Z,3.50
2023-11-16T03:54:57.946Z,2.97
2023-11-16T03:57:43.724Z,3.47
2023-11-16T04:00:31.733Z,3.08
2023-11-16T04:03:19.137Z,3.65
2023-11-16T04:06:05.450Z,3.45
2023-11-16T04:08:52.696Z,3.30
2023-11-16T04:11:42.736Z,3.58
2023-11-16T04:14:28.131Z,2.90
2023-11-16T04:17:15.070Z,3.63
2023-11-16T04:20:02.403Z,3.10
2023-11-16T04:22:49.733Z,3.50
2023-11-16T04:25:37.419Z,3.22
2023-11-16T04:28:23.208Z,2.92
2023-11-16T04:31:11.070Z,3.13
2023-11-16T04:33:56.751Z,2.80
2023-11-16T04:36:44.121Z,2.83
2023-11-16T04:39:30.030Z,2.70
2023-11-16T04:42:15.602Z,3.13
2023-11-16T04:45:05.053Z,3.63
2023-11-16T04:47:52.374Z,3.28
2023-11-16T04:50:39.724Z,3.50
2023-11-16T04:53:27.150Z,3.35
2023-11-16T04:56:13.081Z,4.03
2023-11-16T04:58:58.550Z,4.40
2023-11-16T05:01:44.198Z,4.07
2023-11-16T05:04:30.018Z,4.18
2023-11-16T05:07:16.966Z,4.35
2023-11-16T05:10:08.206Z,4.50
2023-11-16T05:12:53.872Z,5.05
2023-11-16T05:15:41.009Z,5.15
2023-11-16T05:18:27.088Z,5.30
2023-11-16T05:21:16.008Z,5.63
2023-11-16T05:24:04.498Z,6.15
2023-11-16T05:26:53.602Z,6.35
2023-11-16T05:29:39.436Z,6.43
2023-11-16T05:32:25.248Z,6.78
2023-11-16T05:35:12.880Z,7.47
2023-11-16T05:37:58.672Z,6.85
2023-11-16T05:40:45.140Z,7.65
2023-11-16T05:43:32.109Z,7.95
2023-11-16T05:46:18.689Z,7.03
2023-11-16T05:49:04.510Z,8.43
2023-11-16T05:51:50.201Z,7.95
2023-11-16T05:54:36.049Z,8.35
2023-11-16T05:57:21.812Z,7.95
2023-11-16T06:00:12.514Z,8.10
2023-11-16T06:02:58.411Z,7.63
2023-11-16T06:05:43.915Z,6.68
2023-11-16T06:08:30.524Z,7.40
2023-11-16T06:11:16.589Z,7.32
2023-11-16T06:14:09.257Z,7.65
2023-11-16T06:16:56.565Z,7.68
2023-11-16T06:19:42.361Z,7.30
2023-11-16T06:22:27.997Z,6.70
2023-11-16T06:25:13.866Z,7.13
2023-11-16T06:27:59.873Z,7.15
2023-11-16T06:30:46.695Z,6.95
2023-11-16T06:33:34.116Z,6.90
2023-11-16T06:36:24.413Z,6.75
2023-11-16T06:39:09.983Z,6.78
2023-11-16T06:41:55.982Z,7.45
2023-11-16T06:44:41.849Z,7.07
2023-11-16T06:47:27.427Z,7.63
2023-11-16T06:50:14.991Z,7.40
2023-11-16T06:53:06.578Z,7.93
2023-11-16T06:58:41.385Z,8.70
2023-11-16T07:01:27.877Z,8.10
2023-11-16T07:04:13.371Z,7.43
2023-11-16T07:07:00.345Z,8.35
2023-11-16T07:09:47.265Z,7.70
2023-11-16T07:12:33.372Z,7.95
2023-11-16T07:15:22.794Z,8.55
2023-11-16T07:18:10.013Z,7.70
2023-11-16T07:20:55.576Z,7.13
2023-11-16T07:23:43.578Z,7.95
2023-11-16T07:26:29.053Z,6.93
2023-11-16T07:29:15.762Z,8.15
2023-11-16T07:32:01.996Z,8.02
2023-11-16T07:34:47.370Z,10.90
2023-11-16T07:37:33.637Z,9.13
2023-11-16T07:40:21.453Z,9.90
2023-11-16T07:43:07.450Z,10.93
2023-11-16T07:45:54.058Z,8.07
2023-11-16T07:48:40.223Z,7.10
2023-11-16T07:51:26.156Z,6.68
2023-11-16T07:54:12.753Z,7.10
2023-11-16T07:57:04.021Z,6.90
2023-11-16T08:02:55.537Z,7.30
2023-11-16T08:05:46.971Z,7.78
2023-11-16T08:08:32.780Z,8.55
2023-11-16T08:11:20.059Z,9.98
2023-11-16T08:14:08.202Z,10.02
2023-11-16T08:16:57.815Z,10.90
2023-11-16T08:19:44.117Z,11.32
2023-11-16T08:22:29.858Z,11.90
2023-11-16T08:25:15.621Z,11.48
2023-11-16T08:28:02.543Z,11.68
2023-11-16T08:30:50.742Z,13.07
2023-11-16T08:33:36.818Z,11.85
2023-11-16T08:36:22.975Z,12.48
2023-11-16T08:39:08.847Z,12.77
2023-11-16T08:41:54.816Z,12.93
2023-11-16T08:44:43.913Z,12.90
2023-11-16T08:47:31.015Z,12.52
2023-11-16T08:50:19.830Z,11.57
2023-11-16T08:53:08.752Z,11.45
2023-11-16T08:55:55.936Z,12.18
2023-11-16T08:58:48.592Z,12.15
2023-11-16T09:01:36.300Z,11.75
2023-11-16T09:04:25.835Z,10.55
2023-11-16T09:07:11.735Z,10.70
2023-11-16T09:10:01.162Z,10.38
2023-11-16T09:12:48.839Z,10.35
2023-11-16T09:15:34.836Z,10.15
2023-11-16T09:18:24.064Z,11.18
2023-11-16T09:21:16.077Z,11.25
2023-11-16T09:24:03.000Z,11.65
2023-11-16T09:26:49.279Z,11.90
2023-11-16T09:29:37.721Z,12.50
2023-11-16T09:32:23.341Z,12.90
2023-11-16T09:35:14.795Z,13.93
2023-11-16T09:38:09.533Z,13.38
2023-11-16T09:40:58.339Z,13.85
2023-11-16T09:43:52.296Z,15.25
2023-11-16T09:46:39.845Z,15.98
2023-11-16T09:49:25.731Z,17.02
2023-11-16T09:52:12.859Z,20.67
2023-11-16T09:55:02.216Z,29.63
2023-11-16T09:57:52.252Z,18.98
2023-11-16T10:00:41.129Z,17.35
2023-11-16T10:03:29.063Z,15.98
2023-11-16T10:06:20.507Z,15.30
2023-11-16T10:09:15.425Z,16.13
2023-11-16T10:12:09.011Z,15.85
2023-11-16T10:14:55.191Z,15.70
2023-11-16T10:17:41.011Z,15.75
2023-11-16T10:20:26.876Z,14.95
2023-11-16T10:23:15.200Z,15.23
2023-11-16T10:26:01.409Z,15.02
2023-11-16T10:28:55.856Z,16.83
2023-11-16T10:31:47.447Z,15.68
2023-11-16T10:37:19.349Z,15.18
2023-11-16T10:40:10.515Z,15.73
2023-11-16T10:42:57.719Z,16.73
2023-11-16T10:45:45.374Z,17.30
2023-11-16T10:48:31.541Z,17.08
2023-11-16T10:51:21.202Z,22.45
2023-11-16T10:54:13.490Z,19.48
2023-11-16T10:57:00.562Z,20.92
2023-11-16T10:59:48.706Z,20.98
2023-11-16T11:02:36.926Z,18.33
2023-11-16T11:05:23.438Z,17.15
2023-11-16T11:08:12.520Z,17.30
2023-11-16T11:10:59.565Z,17.20
2023-11-16T11:13:46.462Z,17.35
2023-11-16T11:16:32.678Z,18.13
2023-11-16T11:19:32.277Z,17.55
2023-11-16T11:22:18.322Z,17.40
2023-11-16T11:25:07.264Z,17.52
2023-11-16T11:27:53.364Z,17.88
2023-11-16T11:30:49.506Z,19.08
2023-11-16T11:33:37.006Z,18.05
2023-11-16T11:36:25.757Z,17.75
2023-11-16T11:39:16.185Z,16.77
2023-11-16T11:42:02.998Z,17.35
2023-11-16T11:44:52.751Z,15.38
2023-11-16T11:47:38.679Z,13.75
2023-11-16T11:50:26.812Z,14.15
2023-11-16T11:53:17.725Z,12.13
2023-11-16T11:56:07.876Z,12.20
2023-11-16T11:58:54.598Z,12.60
2023-11-16T12:01:40.387Z,11.20
2023-11-16T12:04:33.440Z,11.68
2023-11-16T12:07:19.121Z,10.52
2023-11-16T12:10:07.000Z,12.75
2023-11-16T12:12:56.926Z,13.23
2023-11-16T12:15:43.380Z,10.35
2023-11-16T12:18:31.211Z,8.75
2023-11-16T12:21:17.685Z,7.90
2023-11-16T12:24:04.161Z,7.18
2023-11-16T12:26:53.430Z,6.75
2023-11-16T12:29:44.246Z,9.25
2023-11-16T12:32:31.318Z,11.82
2023-11-16T12:35:17.029Z,9.57
2023-11-16T12:38:02.694Z,10.07
2023-11-16T12:40:48.610Z,9.68
2023-11-16T12:43:36.750Z,9.18
2023-11-16T12:46:23.840Z,7.57
2023-11-16T12:49:10.534Z,7.35
2023-11-16T12:51:56.543Z,7.43
2023-11-16T12:54:42.398Z,6.75
2023-11-16T12:57:28.544Z,7.80
2023-11-16T13:00:18.979Z,7.35
2023-11-16T13:03:06.034Z,7.82
2023-11-16T13:05:52.243Z,7.20
2023-11-16T13:08:39.382Z,6.95
2023-11-16T13:11:25.206Z,6.85
2023-11-16T13:14:11.180Z,7.63
2023-11-16T13:16:58.091Z,7.20
2023-11-16T13:19:43.935Z,7.45
2023-11-16T13:22:29.542Z,7.10
2023-11-16T13:25:15.957Z,8.35
2023-11-16T13:28:02.125Z,9.82
2023-11-16T13:30:47.823Z,10.57
2023-11-16T13:33:35.228Z,8.95
2023-11-16T13:36:20.861Z,7.30
2023-11-16T13:39:09.070Z,7.30
2023-11-16T13:41:55.691Z,8.43
2023-11-16T13:44:41.306Z,4.63
2023-11-16T13:47:28.758Z,4.93
2023-11-16T13:50:16.255Z,4.65
2023-11-16T13:53:02.174Z,4.40
2023-11-16T13:55:48.703Z,4.78
2023-11-16T13:58:36.818Z,4.97
2023-11-16T14:01:22.665Z,4.60
2023-11-16T14:04:10.589Z,4.28
2023-11-16T14:06:58.478Z,4.40
2023-11-16T14:09:45.838Z,4.40
2023-11-16T14:12:32.042Z,4.95
2023-11-16T14:15:17.897Z,5.18
2023-11-16T14:18:03.864Z,5.18
2023-11-16T14:20:49.756Z,4.55
2023-11-16T14:23:39.768Z,4.13
2023-11-16T14:26:31.492Z,3.70
2023-11-16T14:29:17.426Z,4.22
2023-11-16T14:32:03.054Z,4.43
2023-11-16T14:34:48.658Z,4.80
2023-11-16T14:37:36.061Z,4.57
2023-11-16T14:40:23.397Z,4.00
2023-11-16T14:43:09.231Z,4.05
2023-11-16T14:45:55.275Z,4.43
2023-11-16T14:48:42.042Z,5.25
2023-11-16T14:51:28.016Z,4.80
2023-11-16T14:54:13.847Z,5.18
2023-11-16T14:57:00.659Z,11.32
2023-11-16T14:59:50.067Z,5.82
2023-11-16T15:02:36.255Z,6.03
2023-11-16T15:05:28.736Z,5.63
2023-11-16T15:08:21.345Z,6.03
2023-11-16T15:11:07.195Z,4.72
2023-11-16T15:13:59.268Z,5.47
2023-11-16T15:16:50.262Z,4.32
2023-11-16T15:19:36.316Z,6.75
2023-11-16T15:22:23.195Z,6.55
2023-11-16T15:25:09.308Z,6.13
2023-11-16T15:27:55.047Z,6.93
2023-11-16T15:30:42.437Z,7.93
2023-11-16T15:33:28.376Z,8.10
2023-11-16T15:36:16.214Z,7.68
2023-11-16T15:39:06.949Z,8.48
2023-11-16T15:41:53.203Z,7.85
2023-11-16T15:44:39.226Z,7.28
2023-11-16T15:47:26.797Z,8.60
2023-11-16T15:50:16.854Z,7.85
2023-11-16T15:53:02.301Z,6.00
2023-11-16T15:55:48.034Z,5.93
2023-11-16T15:58:33.595Z,7.13
2023-11-16T16:01:20.805Z,5.68
2023-11-16T16:04:09.434Z,5.28
2023-11-16T16:06:55.267Z,6.57
2023-11-16T16:09:41.734Z,6.97
2023-11-16T16:12:27.478Z,7.22
2023-11-16T16:15:15.303Z,6.70
2023-11-16T16:18:01.315Z,5.55
2023-11-16T16:20:49.873Z,6.65
2023-11-16T16:23:36.053Z,6.93
2023-11-16T16:26:23.630Z,5.88
2023-11-16T16:29:09.295Z,5.65
2023-11-16T16:31:54.916Z,6.03
2023-11-16T16:34:40.528Z,5.50
2023-11-16T16:37:27.352Z,6.30
2023-11-16T16:40:15.804Z,8.43
2023-11-16T16:43:01.799Z,8.82
2023-11-16T16:45:48.151Z,10.35
2023-11-16T16:48:33.925Z,12.63
2023-11-16T16:51:19.817Z,11.00
2023-11-16T16:54:08.876Z,10.57
2023-11-16T16:56:54.815Z,7.03
2023-11-16T16:59:40.830Z,8.07
2023-11-16T17:02:28.733Z,8.40
2023-11-16T17:05:14.570Z,10.07
2023-11-16T17:08:00.262Z,10.60
2023-11-16T17:10:47.176Z,7.90
2023-11-16T17:13:34.007Z,8.63
2023-11-16T17:16:20.584Z,8.40
2023-11-16T17:19:07.062Z,10.38
2023-11-16T17:21:53.641Z,10.82
2023-11-16T17:24:39.390Z,10.45
2023-11-16T17:27:27.456Z,11.13
2023-11-16T17:30:14.169Z,12.38
2023-11-16T17:33:00.469Z,17.08
2023-11-16T17:35:46.111Z,21.05
2023-11-16T17:38:34.820Z,17.67
2023-11-16T17:41:21.736Z,15.07
2023-11-16T17:44:10.107Z,14.05
2023-11-16T17:46:56.629Z,14.20
2023-11-16T17:49:42.656Z,13.88
2023-11-16T17:52:29.048Z,14.15
2023-11-16T17:55:17.374Z,14.55
2023-11-16T17:58:04.982Z,18.60
2023-11-16T18:00:52.250Z,21.08
2023-11-16T18:03:38.162Z,26.25
2023-11-16T18:06:23.913Z,23.15
2023-11-16T18:09:09.903Z,14.80
2023-11-16T18:11:55.572Z,12.32
2023-11-16T18:14:41.420Z,18.63
2023-11-16T18:17:28.639Z,19.23
2023-11-16T18:20:16.863Z,19.20
2023-11-16T18:23:02.677Z,12.63
2023-11-16T18:25:48.312Z,15.93
2023-11-16T18:28:35.234Z,14.63
2023-11-16T18:31:24.050Z,14.32
2023-11-16T18:34:26.976Z,13.38
2023-11-16T18:37:13.853Z,15.25
2023-11-16T18:40:00.637Z,13.57
2023-11-16T18:42:49.704Z,12.65
2023-11-16T18:45:36.789Z,12.60
2023-11-16T18:48:22.486Z,11.75
2023-11-16T18:51:09.669Z,11.75
2023-11-16T18:53:55.221Z,11.52
2023-11-16T18:56:41.097Z,11.30
2023-11-16T18:59:27.127Z,12.18
2023-11-16T19:02:13.084Z,11.15
2023-11-16T19:05:03.977Z,10.63
2023-11-16T19:07:51.051Z,14.68
2023-11-16T19:10:39.114Z,12.82
2023-11-16T19:13:25.135Z,14.43
2023-11-16T19:16:11.137Z,11.57
2023-11-16T19:18:57.181Z,9.80
2023-11-16T19:21:45.154Z,9.90
2023-11-16T19:24:32.202Z,12.13
2023-11-16T19:27:18.493Z,12.23
2023-11-16T19:30:04.767Z,14.52
2023-11-16T19:32:51.256Z,16.65
2023-11-16T19:35:37.904Z,15.90
2023-11-16T19:38:24.091Z,18.95
2023-11-16T19:41:12.145Z,20.55
2023-11-16T19:43:58.001Z,25.55
2023-11-16T19:46:43.716Z,21.65
2023-11-16T19:49:30.379Z,23.60
2023-11-16T19:52:15.842Z,19.20
2023-11-16T19:55:01.597Z,20.75
2023-11-16T19:57:52.141Z,19.63
2023-11-16T20:00:39.416Z,17.48
2023-11-16T20:03:25.549Z,17.48
2023-11-16T20:06:11.403Z,15.13
2023-11-16T20:08:57.026Z,14.32
2023-11-16T20:11:47.176Z,15.68
2023-11-16T20:14:34.030Z,17.50
2023-11-16T20:17:20.342Z,18.88
2023-11-16T20:20:15.099Z,16.00
2023-11-16T20:23:02.668Z,21.70
2023-11-16T20:25:49.494Z,23.13
2023-11-16T20:28:35.644Z,25.25
2023-11-16T20:31:24.294Z,24.13
2023-11-16T20:34:09.876Z,23.70
2023-11-16T20:36:58.216Z,22.98
2023-11-16T20:39:44.370Z,19.77
2023-11-16T20:42:31.128Z,18.85
2023-11-16T20:45:18.260Z,16.70
2023-11-16T20:48:06.073Z,17.40
2023-11-16T20:50:53.535Z,17.52
2023-11-16T20:53:39.378Z,16.38
2023-11-16T20:56:25.325Z,16.50
2023-11-16T20:59:10.980Z,16.10
2023-11-16T21:01:56.753Z,15.90
2023-11-16T21:04:44.157Z,17.52
2023-11-16T21:07:29.649Z,19.02
2023-11-16T21:10:16.281Z,22.15
2023-11-16T21:13:02.157Z,20.17
2023-11-16T21:15:47.880Z,19.45
2023-11-16T21:18:33.853Z,18.70
2023-11-16T21:21:20.673Z,19.13
2023-11-16T21:24:07.143Z,18.27
2023-11-16T21:26:52.883Z,17.67
2023-11-16T21:29:38.872Z,16.95
2023-11-16T21:32:24.748Z,17.77
2023-11-16T21:35:17.413Z,18.48
2023-11-16T21:38:04.501Z,17.98
2023-11-16T21:40:52.329Z,16.75
2023-11-16T21:43:38.353Z,18.27
2023-11-16T21:46:24.258Z,19.67
2023-11-16T21:49:10.618Z,20.85
2023-11-16T21:51:57.771Z,23.13
2023-11-16T21:54:45.235Z,20.92
2023-11-16T21:57:30.845Z,20.40
2023-11-16T22:00:19.023Z,17.40
2023-11-16T22:03:08.961Z,22.23
2023-11-16T22:05:56.872Z,15.02
2023-11-16T22:08:42.365Z,17.40
2023-11-16T22:11:29.445Z,16.33
2023-11-16T22:14:18.239Z,15.15
2023-11-16T22:17:05.578Z,15.32
2023-11-16T22:19:56.104Z,15.15
2023-11-16T22:22:42.879Z,14.63
2023-11-16T22:25:30.438Z,13.93
2023-11-16T22:28:18.046Z,14.52
2023-11-16T22:31:03.800Z,13.55
2023-11-16T22:33:49.938Z,13.70
2023-11-16T22:36:36.460Z,13.77
2023-11-16T22:39:22.508Z,14.23
2023-11-16T22:42:08.048Z,13.43
2023-11-16T22:44:55.027Z,13.55
2023-11-16T22:47:41.810Z,13.02
2023-11-16T22:50:29.560Z,12.65
2023-11-16T22:53:15.597Z,12.98
2023-11-16T22:56:01.511Z,12.73
2023-11-16T22:58:47.195Z,12.70
2023-11-16T23:01:34.187Z,12.57
2023-11-16T23:04:20.259Z,13.45
2023-11-16T23:07:10.502Z,12.52
2023-11-16T23:09:56.782Z,12.60
2023-11-16T23:12:43.024Z,12.00
2023-11-16T23:15:30.002Z,12.10
2023-11-16T23:18:17.345Z,11.45
2023-11-16T23:21:03.022Z,12.23
2023-11-16T23:23:49.040Z,11.60
2023-11-16T23:26:34.649Z,11.43
2023-11-16T23:29:20.686Z,11.60
2023-11-16T23:32:06.865Z,10.98
2023-11-16T23:34:53.824Z,11.52
2023-11-16T23:37:39.400Z,10.70
2023-11-16T23:40:25.327Z,11.55
2023-11-16T23:43:11.341Z,11.20
2023-11-16T23:45:57.076Z,11.07
2023-11-16T23:48:43.335Z,11.15
2023-11-16T23:51:30.404Z,11.35
2023-11-16T23:54:16.425Z,10.23
2023-11-16T23:57:02.528Z,11.13
2023-11-16T23:59:48.240Z,11.05
